createdAt,value
2019-03-23T01:04:14.024Z,96191.98
2019-03-23T01:09:15.342Z,96187.51
2019-03-23T01:14:16.709Z,96179.28
2019-03-23T01:19:17.990Z,96184.28
2019-03-23T01:24:19.282Z,96172.49
2019-03-23T01:29:20.554Z,96176.97
2019-03-23T02:31:22.801Z,96184.70
2019-03-23T02:36:24.133Z,96168.52
2019-03-23T02:41:25.450Z,96170.66
2019-03-23T02:46:26.896Z,96171.77
2019-03-23T02:51:28.301Z,96171.66
2019-03-23T02:56:29.682Z,96172.59
2019-03-23T04:04:52.144Z,96176.48
2019-03-23T04:09:53.478Z,96172.55
2019-03-23T04:14:54.828Z,96176.11
2019-03-23T04:19:56.923Z,96173.13
2019-03-23T04:24:58.281Z,96174.19
2019-03-23T04:29:59.660Z,96179.22
2019-03-23T06:03:44.380Z,96227.20
2019-03-23T06:08:54.663Z,96225.92
2019-03-23T06:13:47.833Z,96230.68
2019-03-23T06:18:49.888Z,96229.66
2019-03-23T06:23:51.167Z,96231.66
2019-03-23T06:28:52.945Z,96228.46
2019-03-23T06:33:55.037Z,96229.65
2019-03-23T06:39:05.202Z,96227.48
2019-03-23T06:43:58.990Z,96227.00
2019-03-23T06:49:01.112Z,96225.75
2019-03-23T06:54:02.550Z,96228.25
2019-03-23T06:59:04.698Z,96223.42
2019-03-23T07:04:06.781Z,96232.85
2019-03-23T07:09:16.336Z,96234.52
2019-03-23T07:14:41.863Z,96233.70
2019-03-23T07:19:43.213Z,96244.17
2019-03-23T07:24:45.815Z,96240.44
2019-03-23T07:29:47.127Z,96247.41
2019-03-23T07:34:52.406Z,96239.06
2019-03-23T07:39:53.875Z,96235.23
2019-03-23T07:44:55.599Z,96232.64
2019-03-23T07:49:57.023Z,96230.83
2019-03-23T07:54:59.478Z,96230.91
2019-03-23T08:00:01.609Z,96233.98
2019-03-23T08:05:03.071Z,96229.30
2019-03-23T08:10:04.470Z,96238.32
2019-03-23T08:15:06.297Z,96236.81
2019-03-23T08:20:07.648Z,96236.66
2019-03-23T08:25:09.017Z,96236.41
2019-03-23T08:30:10.392Z,96235.56
2019-03-23T08:35:11.788Z,96236.16
2019-03-23T08:40:19.308Z,96233.77
2019-03-23T08:45:20.595Z,96235.34
2019-03-23T08:50:21.943Z,96243.39
2019-03-23T08:55:23.316Z,96235.58
2019-03-23T09:00:26.880Z,96238.45
2019-03-23T09:05:31.860Z,96242.27
2019-03-23T09:10:33.331Z,96235.48
2019-03-23T09:15:34.841Z,96232.06
2019-03-23T09:20:36.177Z,96227.21
2019-03-23T09:25:38.323Z,96229.75
2019-03-23T09:30:39.748Z,96228.45
2019-03-23T09:35:41.110Z,96228.20
2019-03-23T09:40:43.148Z,96234.53
2019-03-23T09:45:45.261Z,96224.19
2019-03-23T09:50:47.529Z,96229.83
2019-03-23T09:55:49.727Z,96216.05
2019-03-23T10:00:51.731Z,96221.58
2019-03-23T10:05:53.126Z,96210.54
2019-03-23T10:10:54.662Z,96199.47
2019-03-23T10:15:55.992Z,96200.50
2019-03-23T10:20:57.362Z,96190.81
2019-03-23T10:25:58.916Z,96190.72
2019-03-23T10:37:26.435Z,96175.32
2019-03-23T10:42:27.746Z,96177.37
2019-03-23T10:47:30.107Z,96174.40
2019-03-23T10:52:48.797Z,96173.76
2019-03-23T10:57:56.856Z,96167.23
2019-03-23T11:02:58.213Z,96165.64
2019-03-23T11:07:59.517Z,96154.88
2019-03-23T11:13:00.865Z,96165.33
2019-03-23T11:18:02.207Z,96147.59
2019-03-23T11:23:03.500Z,96141.30
2019-03-23T11:28:04.846Z,96135.97
2019-03-23T11:33:06.182Z,96146.39
2019-03-23T11:38:07.530Z,96141.34
2019-03-23T11:43:09.627Z,96128.44
2019-03-23T11:48:11.000Z,96129.00
2019-03-23T11:53:12.331Z,96119.42
2019-03-23T11:58:13.826Z,96113.81
2019-03-23T12:03:15.160Z,96111.11
2019-03-23T12:08:16.508Z,96101.53
2019-03-23T12:13:17.838Z,96101.41
2019-03-23T12:18:19.129Z,96108.69
2019-03-23T12:23:20.492Z,96103.84
2019-03-23T12:28:21.851Z,96105.69
2019-03-23T12:33:23.165Z,96098.54
2019-03-23T12:38:24.449Z,96093.22
2019-03-23T12:43:25.781Z,96080.30
2019-03-23T12:48:28.913Z,96075.86
2019-03-23T12:53:33.833Z,96069.11
2019-03-23T12:58:42.568Z,96076.52
2019-03-23T13:03:52.445Z,96067.63
2019-03-23T13:08:54.482Z,96066.67
2019-03-23T13:13:55.870Z,96053.43
2019-03-23T13:18:57.186Z,96053.14
2019-03-23T13:23:58.492Z,96052.93
2019-03-23T13:28:59.821Z,96055.89
2019-03-23T13:34:01.270Z,96048.23
2019-03-23T13:39:02.660Z,96042.76
2019-03-23T13:44:04.006Z,96038.93
2019-03-23T13:49:05.362Z,96036.66
2019-03-23T13:54:06.728Z,96044.56
2019-03-23T13:59:15.445Z,96031.30
2019-03-23T14:04:17.850Z,96021.14
2019-03-23T14:09:19.140Z,96031.66
2019-03-23T14:14:20.465Z,96021.42
2019-03-23T14:19:22.581Z,96020.63
2019-03-23T14:24:23.913Z,96014.39
2019-03-23T14:29:26.032Z,96016.05
2019-03-23T14:34:27.466Z,96015.32
2019-03-23T14:39:28.810Z,96011.73
2019-03-23T14:44:30.893Z,96005.52
2019-03-23T14:49:33.017Z,96008.81
2019-03-23T14:54:34.337Z,96009.47
2019-03-23T14:59:35.677Z,96000.72
2019-03-23T15:04:36.994Z,96009.69
2019-03-23T15:09:38.362Z,95999.20
2019-03-23T15:14:39.692Z,96002.42
2019-03-23T15:19:41.978Z,96005.72
2019-03-23T15:24:44.050Z,96006.42
2019-03-23T15:29:46.520Z,96003.94
2019-03-23T15:34:47.939Z,96002.55
2019-03-23T15:39:49.284Z,95992.84
2019-03-23T15:44:51.423Z,95998.69
2019-03-23T15:49:52.799Z,95993.86
2019-03-23T15:54:54.091Z,95989.15
2019-03-23T15:59:55.402Z,95989.03
2019-03-23T16:04:56.729Z,95982.11
2019-03-23T16:09:58.777Z,95982.64
2019-03-23T16:15:00.114Z,95974.39
2019-03-23T16:20:01.437Z,95980.97
2019-03-23T16:25:02.850Z,95985.97
2019-03-23T16:30:05.333Z,95979.88
2019-03-23T16:35:06.705Z,95989.58
2019-03-23T16:40:08.047Z,95984.77
2019-03-23T16:45:09.417Z,95986.96
2019-03-23T16:50:10.759Z,95987.89
2019-03-23T16:55:12.860Z,95989.19
2019-03-23T17:00:14.321Z,95991.09
2019-03-23T17:05:23.168Z,95988.77
2019-03-23T17:10:29.085Z,95997.89
2019-03-23T17:15:30.430Z,96001.28
2019-03-23T17:20:31.849Z,95994.58
2019-03-23T17:25:33.991Z,95998.51
2019-03-23T17:30:36.564Z,96001.11
2019-03-23T17:35:38.040Z,95994.47
2019-03-23T17:40:39.405Z,96001.71
2019-03-23T17:45:40.861Z,96000.97
2019-03-23T17:50:42.236Z,96004.39
2019-03-23T17:55:43.548Z,96014.67
2019-03-23T18:00:46.767Z,96017.50
2019-03-23T18:05:51.860Z,96014.88
2019-03-23T18:10:53.646Z,96016.48
2019-03-23T18:15:56.396Z,96023.48
2019-03-23T18:20:58.289Z,96025.45
2019-03-23T18:25:59.641Z,96035.66
2019-03-23T18:31:01.042Z,96041.06
2019-03-23T18:36:02.487Z,96048.58
2019-03-23T18:41:04.220Z,96044.73
2019-03-23T18:46:05.618Z,96046.94
2019-03-23T18:51:06.986Z,96059.39
2019-03-23T18:56:08.379Z,96057.32
2019-03-23T19:01:09.876Z,96070.69
2019-03-23T19:06:11.433Z,96069.47
2019-03-23T19:11:14.921Z,96067.76
2019-03-23T19:16:14.468Z,96071.98
2019-03-23T19:21:15.818Z,96069.94
2019-03-23T19:26:17.153Z,96072.66
2019-03-23T19:31:18.709Z,96067.05
2019-03-23T19:36:20.169Z,96068.95
2019-03-23T19:41:22.340Z,96073.66
2019-03-23T19:46:33.341Z,96073.92
2019-03-23T19:51:35.480Z,96088.75
2019-03-23T19:56:36.925Z,96077.44
2019-03-23T20:02:00.084Z,96081.41
2019-03-23T20:07:01.387Z,96081.09
2019-03-23T20:12:02.838Z,96085.13
2019-03-23T20:17:04.209Z,96090.78
2019-03-23T20:22:05.662Z,96083.21
2019-03-23T20:27:11.919Z,96085.58
2019-03-23T20:32:13.977Z,96081.63
2019-03-23T20:37:15.349Z,96076.30
2019-03-23T20:42:17.427Z,96087.17
2019-03-23T20:47:18.838Z,96080.39
2019-03-23T20:52:20.245Z,96082.55
2019-03-23T20:57:24.200Z,96086.92
2019-03-23T21:02:23.101Z,96080.16
2019-03-23T21:07:25.195Z,96077.81
2019-03-23T21:12:27.449Z,96070.95
2019-03-23T21:17:28.760Z,96072.02
2019-03-23T21:22:30.082Z,96072.24
2019-03-23T21:27:31.468Z,96069.78
2019-03-23T21:32:32.804Z,96082.95
2019-03-23T21:37:34.233Z,96073.08
2019-03-23T21:42:35.685Z,96065.32
2019-03-23T21:47:37.195Z,96065.96
2019-03-23T21:52:38.639Z,96056.16
2019-03-23T21:57:40.002Z,96057.82
2019-03-23T22:02:41.360Z,96052.91
2019-03-23T22:07:42.666Z,96049.17
2019-03-23T22:12:44.100Z,96048.55
2019-03-23T22:17:46.591Z,96043.49
2019-03-23T22:22:56.013Z,96048.52
2019-03-23T22:28:00.610Z,96039.84
2019-03-23T22:33:02.697Z,96038.67
2019-03-23T22:38:09.112Z,96035.34
2019-03-23T22:43:14.100Z,96041.35
2019-03-23T22:48:15.461Z,96041.38
2019-03-23T22:53:16.801Z,96033.95
2019-03-23T22:58:18.185Z,96030.35
2019-03-23T23:35:00.427Z,95992.70
2019-03-23T23:40:01.746Z,95997.41
2019-03-23T23:45:14.591Z,95981.52
2019-03-23T23:50:05.194Z,95981.25
2019-03-23T23:55:07.288Z,95975.12
